Terminal Aerodrome Forecast
Issued by NWS

Home | Current Version | Previous Version | Text Only | Print | Product List | Glossary On
Versions: 1 2 3 4 5 6 7 8 9 10 11 12 13 14 15 16 17 18 19 20 21
091
FTUS43 KGRR 252340
TAFBTL
TAF
KBTL 252340Z 2600/2624 30005KT P6SM BKN040
     FM260400 31006KT P6SM OVC030
     FM260900 29005KT 2SM BR OVC010
     FM261300 31004KT 3SM BR OVC010
     FM261400 32004KT P6SM OVC020
     FM261600 29004KT P6SM BKN035=

USA.gov is the U.S. government's official web portal to all federal, state and local government web resources and services.